createdAt,value
2022-07-26T00:02:07.120Z,93.94
2022-07-26T00:04:35.426Z,84.60
2022-07-26T00:07:03.311Z,86.14
2022-07-26T00:09:31.261Z,87.38
2022-07-26T00:11:59.489Z,88.28
2022-07-26T00:14:27.438Z,93.29
2022-07-26T00:16:55.517Z,97.08
2022-07-26T00:19:23.933Z,97.60
2022-07-26T00:22:29.283Z,96.62
2022-07-26T00:24:57.511Z,96.11
2022-07-26T00:27:25.723Z,97.82
2022-07-26T00:29:53.664Z,97.70
2022-07-26T00:32:21.946Z,99.21
2022-07-26T00:34:51.898Z,92.30
2022-07-26T00:37:21.120Z,94.26
2022-07-26T00:39:49.860Z,99.00
2022-07-26T00:42:17.826Z,98.82
2022-07-26T00:44:46.520Z,98.48
2022-07-26T00:47:15.451Z,97.63
2022-07-26T00:49:44.190Z,96.96
2022-07-26T00:52:13.303Z,93.18
2022-07-26T00:54:46.935Z,93.05
2022-07-26T00:57:15.461Z,92.24
2022-07-26T00:59:43.921Z,93.00
2022-07-26T01:02:12.111Z,98.20
2022-07-26T01:04:41.649Z,92.46
2022-07-26T01:07:14.812Z,84.41
2022-07-26T01:09:44.170Z,92.18
2022-07-26T01:12:13.057Z,90.51
2022-07-26T01:14:44.689Z,98.12
2022-07-26T01:17:14.364Z,98.52
2022-07-26T01:19:43.216Z,96.54
2022-07-26T01:22:14.330Z,96.19
2022-07-26T01:24:43.248Z,96.32
2022-07-26T01:27:11.172Z,85.67
2022-07-26T01:29:39.047Z,91.61
2022-07-26T01:32:08.686Z,85.54
2022-07-26T01:34:36.519Z,86.38
2022-07-26T01:37:06.254Z,94.32
2022-07-26T01:39:34.618Z,95.92
2022-07-26T01:42:02.495Z,98.58
2022-07-26T01:44:33.097Z,98.85
2022-07-26T01:47:01.410Z,94.89
2022-07-26T01:49:29.244Z,91.90
2022-07-26T01:51:57.122Z,86.57
2022-07-26T01:54:25.559Z,91.24
2022-07-26T01:56:53.856Z,92.87
2022-07-26T01:59:21.831Z,93.13
2022-07-26T02:01:50.175Z,93.04
2022-07-26T02:04:36.766Z,90.27
2022-07-26T02:07:05.318Z,95.62
2022-07-26T02:09:39.572Z,99.24
2022-07-26T02:12:08.630Z,100.00
2022-07-26T02:14:36.635Z,100.00
2022-07-26T02:17:05.166Z,100.00
2022-07-26T02:19:33.578Z,95.47
2022-07-26T02:22:01.505Z,99.23
2022-07-26T02:24:29.824Z,100.00
2022-07-26T02:26:59.214Z,98.74
2022-07-26T02:29:28.072Z,97.82
2022-07-26T02:31:56.644Z,90.11
2022-07-26T02:34:24.802Z,83.87
2022-07-26T02:36:53.332Z,96.56
2022-07-26T02:39:21.811Z,89.45
2022-07-26T02:41:49.847Z,97.11
2022-07-26T02:44:17.633Z,97.44
2022-07-26T02:46:45.894Z,97.83
2022-07-26T02:49:13.847Z,89.88
2022-07-26T02:51:41.691Z,87.98
2022-07-26T02:54:10.546Z,82.01
2022-07-26T02:56:39.106Z,73.06
2022-07-26T02:59:07.828Z,83.28
2022-07-26T03:01:36.231Z,82.95
2022-07-26T03:04:04.299Z,94.07
2022-07-26T03:06:32.312Z,96.77
2022-07-26T03:09:00.847Z,93.06
2022-07-26T03:11:28.849Z,92.38
2022-07-26T03:13:56.791Z,81.28
2022-07-26T03:16:29.374Z,92.80
2022-07-26T03:18:58.157Z,92.30
2022-07-26T03:21:26.533Z,76.85
2022-07-26T03:23:54.462Z,76.57
2022-07-26T03:26:23.822Z,84.83
2022-07-26T03:28:52.084Z,67.95
2022-07-26T03:31:20.154Z,88.44
2022-07-26T03:33:48.199Z,76.97
2022-07-26T03:36:16.467Z,68.41
2022-07-26T03:38:44.294Z,65.49
2022-07-26T03:41:13.512Z,83.81
2022-07-26T03:43:42.306Z,62.17
2022-07-26T03:46:10.310Z,60.44
2022-07-26T03:48:38.473Z,65.87
2022-07-26T03:51:06.886Z,73.95
2022-07-26T03:53:34.956Z,58.69
2022-07-26T03:56:24.514Z,60.33
2022-07-26T03:58:52.716Z,57.67
2022-07-26T04:01:20.773Z,65.90
2022-07-26T04:03:49.049Z,58.48
2022-07-26T04:06:18.319Z,53.83
2022-07-26T04:08:51.413Z,52.49
2022-07-26T04:11:19.347Z,54.04
2022-07-26T04:13:47.314Z,54.76
2022-07-26T04:16:15.591Z,60.31
2022-07-26T04:18:43.562Z,57.30
2022-07-26T04:21:11.592Z,51.74
2022-07-26T04:23:39.899Z,54.52
2022-07-26T04:26:07.811Z,56.72
2022-07-26T04:28:35.803Z,61.77
2022-07-26T04:31:04.097Z,60.65
2022-07-26T04:36:20.108Z,64.05
2022-07-26T04:38:48.095Z,65.85
2022-07-26T04:41:15.973Z,69.02
2022-07-26T04:46:29.609Z,60.80
2022-07-26T04:48:58.102Z,61.10
2022-07-26T04:51:26.811Z,59.52
2022-07-26T04:53:54.706Z,68.59
2022-07-26T04:56:22.978Z,53.21
2022-07-26T04:58:50.799Z,54.31
2022-07-26T05:01:18.688Z,53.76
2022-07-26T05:03:46.950Z,49.16
2022-07-26T05:06:14.936Z,51.76
2022-07-26T05:08:43.682Z,53.36
2022-07-26T05:11:12.040Z,48.85
2022-07-26T05:13:39.986Z,51.68
2022-07-26T05:16:11.716Z,49.92
2022-07-26T05:18:48.953Z,51.50
2022-07-26T05:21:18.950Z,59.31
2022-07-26T05:23:47.255Z,52.66
2022-07-26T05:26:15.599Z,52.56
2022-07-26T05:28:46.347Z,57.09
2022-07-26T05:31:14.720Z,51.37
2022-07-26T05:33:42.621Z,52.59
2022-07-26T05:36:10.697Z,45.41
2022-07-26T05:38:39.366Z,45.59
2022-07-26T05:41:07.584Z,43.87
2022-07-26T05:43:40.702Z,44.19
2022-07-26T05:46:11.024Z,43.27
2022-07-26T05:48:40.326Z,43.64
2022-07-26T05:51:09.260Z,42.41
2022-07-26T05:53:38.201Z,41.25
2022-07-26T05:56:06.756Z,42.40
2022-07-26T05:58:35.006Z,40.38
2022-07-26T06:01:03.377Z,40.89
2022-07-26T06:03:32.679Z,39.74
2022-07-26T06:06:00.560Z,38.90
2022-07-26T06:08:28.749Z,38.86
2022-07-26T06:10:57.517Z,38.76
2022-07-26T06:13:25.458Z,38.02
2022-07-26T06:15:53.605Z,39.07
2022-07-26T06:18:24.554Z,43.62
2022-07-26T06:20:52.815Z,39.72
2022-07-26T06:23:33.811Z,38.98
2022-07-26T06:26:04.819Z,39.44
2022-07-26T06:28:33.383Z,41.75
2022-07-26T06:31:01.602Z,46.70
2022-07-26T06:33:29.754Z,46.70
2022-07-26T06:35:58.035Z,39.20
2022-07-26T06:38:26.012Z,40.32
2022-07-26T06:40:54.200Z,37.90
2022-07-26T06:43:22.526Z,36.23
2022-07-26T06:45:52.650Z,35.00
2022-07-26T06:48:20.606Z,35.81
2022-07-26T06:50:49.042Z,43.03
2022-07-26T06:53:17.015Z,40.63
2022-07-26T06:55:45.017Z,36.32
2022-07-26T06:58:14.203Z,33.13
2022-07-26T07:00:42.250Z,34.39
2022-07-26T07:03:10.235Z,35.45
2022-07-26T07:05:38.531Z,40.28
2022-07-26T07:08:07.292Z,33.98
2022-07-26T07:10:35.698Z,33.00
2022-07-26T07:13:04.436Z,32.62
2022-07-26T07:15:32.349Z,37.01
2022-07-26T07:18:00.229Z,34.48
2022-07-26T07:20:28.754Z,34.16
2022-07-26T07:22:56.676Z,32.97
2022-07-26T07:25:30.310Z,31.24
2022-07-26T07:27:59.877Z,30.90
2022-07-26T07:30:33.790Z,31.54
2022-07-26T07:33:02.085Z,30.67
2022-07-26T07:35:50.646Z,30.62
2022-07-26T07:38:19.064Z,29.76
2022-07-26T07:40:47.179Z,29.20
2022-07-26T07:43:15.032Z,32.32
2022-07-26T07:45:43.465Z,30.02
2022-07-26T07:48:16.268Z,38.63
2022-07-26T07:51:02.808Z,30.61
2022-07-26T07:53:30.658Z,38.64
2022-07-26T07:55:59.578Z,31.10
2022-07-26T07:58:28.141Z,29.06
2022-07-26T08:03:41.869Z,29.86
2022-07-26T08:06:10.743Z,30.70
2022-07-26T08:08:38.934Z,27.93
2022-07-26T08:11:07.958Z,27.61
2022-07-26T08:13:36.225Z,28.48
2022-07-26T08:16:06.220Z,32.64
2022-07-26T08:18:42.060Z,30.74
2022-07-26T08:21:21.417Z,39.29
2022-07-26T08:23:50.028Z,33.22
2022-07-26T08:26:18.003Z,29.08
2022-07-26T08:28:47.939Z,28.73
2022-07-26T08:31:17.518Z,29.92
2022-07-26T08:33:45.863Z,31.20
2022-07-26T08:36:18.264Z,29.09
2022-07-26T08:38:47.790Z,31.95
2022-07-26T08:41:18.594Z,34.75
2022-07-26T08:43:51.898Z,34.93
2022-07-26T08:46:25.968Z,43.56
2022-07-26T08:48:58.599Z,33.76
2022-07-26T08:51:27.228Z,32.60
2022-07-26T08:54:04.031Z,38.48
2022-07-26T08:56:35.347Z,30.87
2022-07-26T08:59:19.573Z,27.45
2022-07-26T09:01:51.895Z,29.11
2022-07-26T09:04:43.224Z,29.19
2022-07-26T09:07:13.369Z,24.38
2022-07-26T09:10:06.052Z,22.95
2022-07-26T09:12:34.158Z,28.56
2022-07-26T09:15:04.846Z,30.20
2022-07-26T09:17:44.372Z,25.45
2022-07-26T09:20:15.951Z,31.07
2022-07-26T09:23:02.604Z,36.89
2022-07-26T09:25:39.997Z,33.93
2022-07-26T09:28:29.923Z,31.05
2022-07-26T09:31:05.451Z,27.57
2022-07-26T09:33:47.162Z,29.86
2022-07-26T09:36:16.583Z,30.91
2022-07-26T09:38:49.226Z,33.63
2022-07-26T09:41:22.415Z,27.38
2022-07-26T09:43:53.976Z,24.24
2022-07-26T09:46:26.574Z,26.50
2022-07-26T09:49:13.880Z,26.06
2022-07-26T09:51:45.050Z,31.55
2022-07-26T09:54:18.332Z,29.04
2022-07-26T09:56:52.123Z,33.20
2022-07-26T09:59:22.146Z,38.63
2022-07-26T10:01:53.184Z,28.58
2022-07-26T10:04:22.477Z,31.51
2022-07-26T10:06:50.551Z,25.70
2022-07-26T10:09:19.585Z,23.42
2022-07-26T10:12:06.129Z,31.84
2022-07-26T10:14:33.977Z,25.40
2022-07-26T10:17:34.996Z,27.48
2022-07-26T10:20:09.220Z,26.21
2022-07-26T10:22:45.329Z,28.29
2022-07-26T10:25:19.109Z,22.82
2022-07-26T10:27:53.123Z,22.84
2022-07-26T10:30:22.858Z,23.72
2022-07-26T10:33:02.479Z,27.59
2022-07-26T10:35:43.803Z,24.00
2022-07-26T10:38:27.895Z,31.36
2022-07-26T10:41:08.183Z,32.44
2022-07-26T10:43:41.544Z,23.38
2022-07-26T10:46:23.629Z,23.14
2022-07-26T10:49:21.333Z,27.10
2022-07-26T10:52:12.199Z,22.98
2022-07-26T10:55:05.087Z,26.94
2022-07-26T10:57:36.302Z,28.98
2022-07-26T11:00:25.252Z,21.26
2022-07-26T11:02:58.717Z,26.56
2022-07-26T11:05:31.980Z,26.08
2022-07-26T11:08:08.334Z,28.36
2022-07-26T11:10:47.702Z,30.21
2022-07-26T11:13:26.413Z,30.66
2022-07-26T11:16:03.980Z,39.14
2022-07-26T11:18:38.039Z,30.85
2022-07-26T11:21:24.902Z,35.22
2022-07-26T11:23:52.815Z,40.11
2022-07-26T11:26:23.760Z,35.08
2022-07-26T11:28:56.249Z,36.16
2022-07-26T11:31:50.627Z,40.29
2022-07-26T11:34:34.412Z,39.76
2022-07-26T11:37:05.127Z,35.16
2022-07-26T11:39:35.749Z,34.49
2022-07-26T11:42:16.570Z,37.90
2022-07-26T11:44:45.887Z,33.72
2022-07-26T11:47:24.340Z,33.21
2022-07-26T11:52:43.791Z,32.58
2022-07-26T11:55:11.826Z,32.73
2022-07-26T11:57:39.747Z,32.12
2022-07-26T12:00:08.902Z,31.00
2022-07-26T12:02:39.282Z,30.73
2022-07-26T12:05:21.495Z,29.53
2022-07-26T12:08:08.885Z,31.28
2022-07-26T12:10:37.231Z,29.82
2022-07-26T12:13:24.759Z,30.46
2022-07-26T12:15:54.045Z,29.01
2022-07-26T12:18:34.324Z,28.59
2022-07-26T12:21:07.841Z,29.24
2022-07-26T12:23:49.163Z,28.10
2022-07-26T12:26:22.561Z,28.97
2022-07-26T12:28:50.587Z,28.81
2022-07-26T12:31:33.314Z,27.71
2022-07-26T12:34:01.539Z,27.48
2022-07-26T12:36:34.191Z,26.37
2022-07-26T12:39:03.299Z,25.42
2022-07-26T12:41:36.532Z,26.38
2022-07-26T12:44:12.083Z,28.07
2022-07-26T12:46:41.088Z,29.00
2022-07-26T12:49:09.050Z,29.54
2022-07-26T12:51:37.677Z,31.18
2022-07-26T12:54:07.081Z,31.60
2022-07-26T12:56:35.269Z,32.52
2022-07-26T12:59:03.686Z,31.78
2022-07-26T13:01:32.667Z,33.71
2022-07-26T13:04:01.025Z,35.25
2022-07-26T13:06:29.074Z,36.72
2022-07-26T13:08:57.467Z,37.95
2022-07-26T13:11:25.893Z,39.21
2022-07-26T13:13:53.877Z,39.68
2022-07-26T13:16:22.440Z,41.05
2022-07-26T13:18:50.303Z,40.77
2022-07-26T13:21:18.324Z,40.54
2022-07-26T13:23:46.617Z,41.33
2022-07-26T13:26:14.524Z,42.78
2022-07-26T13:28:42.767Z,40.84
2022-07-26T13:31:13.101Z,38.36
2022-07-26T13:33:41.777Z,39.50
2022-07-26T13:36:10.281Z,39.56
2022-07-26T13:38:58.444Z,40.54
2022-07-26T13:41:26.968Z,40.62
2022-07-26T13:43:58.523Z,41.92
2022-07-26T13:46:33.700Z,41.48
2022-07-26T13:52:00.195Z,41.56
2022-07-26T13:54:46.752Z,41.49
2022-07-26T13:57:14.677Z,44.32
2022-07-26T13:59:43.316Z,45.41
2022-07-26T14:02:11.449Z,46.63
2022-07-26T14:04:39.889Z,47.85
2022-07-26T14:07:07.798Z,48.73
2022-07-26T14:09:35.846Z,48.83
2022-07-26T14:12:04.580Z,48.87
2022-07-26T14:14:33.166Z,49.17
2022-07-26T14:17:01.111Z,50.53
2022-07-26T14:19:29.437Z,52.80
2022-07-26T14:21:59.317Z,52.24
2022-07-26T14:24:29.396Z,52.11
2022-07-26T14:26:59.525Z,51.02
2022-07-26T14:29:29.816Z,52.34
2022-07-26T14:31:58.297Z,52.33
2022-07-26T14:34:26.304Z,51.43
2022-07-26T14:39:44.687Z,52.48
2022-07-26T14:42:18.854Z,53.52
2022-07-26T14:44:48.059Z,54.11
2022-07-26T14:47:16.397Z,55.32
2022-07-26T14:49:47.696Z,56.05
2022-07-26T14:52:16.710Z,55.93
2022-07-26T14:54:44.657Z,55.51
2022-07-26T14:57:12.723Z,53.78
2022-07-26T14:59:41.057Z,54.15
2022-07-26T15:02:11.344Z,54.74
2022-07-26T15:04:39.324Z,55.62
2022-07-26T15:07:07.593Z,53.40
2022-07-26T15:09:35.513Z,53.07
2022-07-26T15:12:03.495Z,54.49
2022-07-26T15:14:31.689Z,53.53
2022-07-26T15:16:59.683Z,54.33
2022-07-26T15:19:27.755Z,54.90
2022-07-26T15:21:56.135Z,55.74
2022-07-26T15:24:24.525Z,55.35
2022-07-26T15:26:52.522Z,55.25
2022-07-26T15:29:20.816Z,54.99
2022-07-26T15:31:49.517Z,54.76
2022-07-26T15:34:17.602Z,54.45
2022-07-26T15:36:45.856Z,54.79
2022-07-26T15:39:17.215Z,56.14
2022-07-26T15:41:49.815Z,56.30
2022-07-26T15:44:19.748Z,57.20
2022-07-26T15:46:49.949Z,56.82
2022-07-26T15:49:18.613Z,58.44
2022-07-26T15:51:46.655Z,59.89
2022-07-26T15:54:16.310Z,59.40
2022-07-26T15:56:44.764Z,58.37
2022-07-26T15:59:12.959Z,60.06
2022-07-26T16:01:41.314Z,61.13
2022-07-26T16:04:09.914Z,61.13
2022-07-26T16:06:38.391Z,61.88
2022-07-26T16:09:18.656Z,62.77
2022-07-26T16:11:49.162Z,61.25
2022-07-26T16:14:17.705Z,62.23
2022-07-26T16:16:46.231Z,62.82
2022-07-26T16:19:15.160Z,61.25
2022-07-26T16:21:43.459Z,61.24
2022-07-26T16:24:11.418Z,61.50
2022-07-26T16:26:40.170Z,61.65
2022-07-26T16:29:08.886Z,63.11
2022-07-26T16:31:37.512Z,64.43
2022-07-26T16:34:05.933Z,63.57
2022-07-26T16:36:34.385Z,63.12
2022-07-26T16:39:02.503Z,61.35
2022-07-26T16:41:31.312Z,62.38
2022-07-26T16:43:59.254Z,63.30
2022-07-26T16:46:27.307Z,63.24
2022-07-26T16:48:55.695Z,63.95
2022-07-26T16:51:23.631Z,65.03
2022-07-26T16:53:54.140Z,65.21
2022-07-26T16:56:22.442Z,64.51
2022-07-26T16:58:50.384Z,64.88
2022-07-26T17:01:18.307Z,63.23
2022-07-26T17:04:05.238Z,64.20
2022-07-26T17:06:33.112Z,64.95
2022-07-26T17:09:01.477Z,62.77
2022-07-26T17:11:29.492Z,62.44
2022-07-26T17:13:58.051Z,62.91
2022-07-26T17:16:26.752Z,67.04
2022-07-26T17:18:55.540Z,67.50
2022-07-26T17:21:23.947Z,67.37
2022-07-26T17:23:52.422Z,70.23
2022-07-26T17:29:06.604Z,68.07
2022-07-26T17:31:34.487Z,69.49
2022-07-26T17:34:02.515Z,71.22
2022-07-26T17:36:31.961Z,68.08
2022-07-26T17:39:08.006Z,67.65
2022-07-26T17:41:36.425Z,64.39
2022-07-26T17:44:04.508Z,64.46
2022-07-26T17:46:35.548Z,66.45
2022-07-26T17:49:03.908Z,65.97
2022-07-26T17:51:31.887Z,57.21
2022-07-26T17:53:59.752Z,62.08
2022-07-26T17:56:28.324Z,66.92
2022-07-26T17:58:56.650Z,66.53
2022-07-26T18:01:26.240Z,63.53
2022-07-26T18:03:54.580Z,64.33
2022-07-26T18:06:22.500Z,60.32
2022-07-26T18:08:50.542Z,62.58
2022-07-26T18:11:18.834Z,62.50
2022-07-26T18:13:46.695Z,63.75
2022-07-26T18:16:14.774Z,58.83
2022-07-26T18:19:02.149Z,63.35
2022-07-26T18:21:30.493Z,67.21
2022-07-26T18:24:15.844Z,61.93
2022-07-26T18:26:44.733Z,66.25
2022-07-26T18:29:15.397Z,68.13
2022-07-26T18:31:43.505Z,64.22
2022-07-26T18:34:11.483Z,63.54
2022-07-26T18:36:39.725Z,69.39
2022-07-26T18:39:07.909Z,71.02
2022-07-26T18:41:36.001Z,74.39
2022-07-26T18:44:04.422Z,73.47
2022-07-26T18:46:32.648Z,67.56
2022-07-26T18:51:49.821Z,67.05
2022-07-26T18:54:19.491Z,70.13
2022-07-26T18:56:47.840Z,69.51
2022-07-26T18:59:15.704Z,69.31
2022-07-26T19:01:43.712Z,74.29
2022-07-26T19:04:12.074Z,68.36
2022-07-26T19:06:40.332Z,68.79
2022-07-26T19:09:08.578Z,57.10
2022-07-26T19:11:37.957Z,63.62
2022-07-26T19:14:05.871Z,58.53
2022-07-26T19:16:33.928Z,64.81
2022-07-26T19:19:02.564Z,68.49
2022-07-26T19:21:30.512Z,71.80
2022-07-26T19:23:58.367Z,65.09
2022-07-26T19:26:27.818Z,67.86
2022-07-26T19:28:56.003Z,58.29
2022-07-26T19:31:24.233Z,64.06
2022-07-26T19:33:52.742Z,61.84
2022-07-26T19:36:25.904Z,67.80
2022-07-26T19:38:57.006Z,64.23
2022-07-26T19:41:25.495Z,57.77
2022-07-26T19:43:53.492Z,59.38
2022-07-26T19:46:22.153Z,55.17
2022-07-26T19:48:50.323Z,68.25
2022-07-26T19:51:18.303Z,70.02
2022-07-26T19:53:46.613Z,76.70
2022-07-26T19:56:14.721Z,77.87
2022-07-26T19:58:42.680Z,65.36
2022-07-26T20:01:10.947Z,76.29
2022-07-26T20:03:39.402Z,75.48
2022-07-26T20:06:07.443Z,77.10
2022-07-26T20:08:35.450Z,77.76
2022-07-26T20:11:03.753Z,83.08
2022-07-26T20:13:31.685Z,73.37
2022-07-26T20:16:00.241Z,61.84
2022-07-26T20:18:31.057Z,71.75
2022-07-26T20:20:58.967Z,72.51
2022-07-26T20:23:29.118Z,69.61
2022-07-26T20:25:57.524Z,75.06
2022-07-26T20:28:26.041Z,71.98
2022-07-26T20:30:55.324Z,67.74
2022-07-26T20:33:25.636Z,69.84
2022-07-26T20:35:55.200Z,66.41
2022-07-26T20:38:23.868Z,68.71
2022-07-26T20:40:52.751Z,66.75
2022-07-26T20:43:22.723Z,68.88
2022-07-26T20:45:51.284Z,64.68
2022-07-26T20:48:19.247Z,73.24
2022-07-26T20:50:47.233Z,68.06
2022-07-26T20:53:15.589Z,77.96
2022-07-26T20:55:43.526Z,71.76
2022-07-26T20:58:13.927Z,76.26
2022-07-26T21:00:42.387Z,74.14
2022-07-26T21:03:10.514Z,71.26
2022-07-26T21:05:38.598Z,71.54
2022-07-26T21:08:07.017Z,65.63
2022-07-26T21:10:35.020Z,75.41
2022-07-26T21:13:02.934Z,68.31
2022-07-26T21:15:31.898Z,73.60
2022-07-26T21:17:59.815Z,69.60
2022-07-26T21:20:27.797Z,67.54
2022-07-26T21:23:08.185Z,73.64
2022-07-26T21:25:41.007Z,67.46
2022-07-26T21:28:09.312Z,68.35
2022-07-26T21:30:37.242Z,73.28
2022-07-26T21:33:05.450Z,76.04
2022-07-26T21:35:33.723Z,64.67
2022-07-26T21:38:01.658Z,79.92
2022-07-26T21:40:29.790Z,77.63
2022-07-26T21:42:58.038Z,74.70
2022-07-26T21:45:26.110Z,81.55
2022-07-26T21:47:56.908Z,80.60
2022-07-26T21:50:25.231Z,82.05
2022-07-26T21:52:53.239Z,81.70
2022-07-26T21:55:21.269Z,76.72
2022-07-26T21:57:49.604Z,81.39
2022-07-26T22:00:18.160Z,75.59
2022-07-26T22:02:46.439Z,82.61
2022-07-26T22:05:33.101Z,74.20
2022-07-26T22:08:02.678Z,75.17
2022-07-26T22:10:30.540Z,80.33
2022-07-26T22:12:58.375Z,82.81
2022-07-26T22:15:26.591Z,78.99
2022-07-26T22:18:00.501Z,84.67
2022-07-26T22:20:33.597Z,87.53
2022-07-26T22:23:02.755Z,87.88
2022-07-26T22:25:32.513Z,80.83
2022-07-26T22:28:01.350Z,69.96
2022-07-26T22:30:29.974Z,71.97
2022-07-26T22:32:59.622Z,85.46
2022-07-26T22:35:34.964Z,87.36
2022-07-26T22:38:07.822Z,83.16
2022-07-26T22:40:36.301Z,88.11
2022-07-26T22:43:08.031Z,88.89
2022-07-26T22:45:37.116Z,86.95
2022-07-26T22:48:06.751Z,89.57
2022-07-26T22:50:34.609Z,86.74
2022-07-26T22:53:02.537Z,89.69
2022-07-26T22:55:32.050Z,82.90
2022-07-26T22:58:00.018Z,78.13
2022-07-26T23:00:28.165Z,78.02
2022-07-26T23:02:56.663Z,74.35
2022-07-26T23:05:46.036Z,69.46
2022-07-26T23:08:44.219Z,71.75
2022-07-26T23:11:01.460Z,69.84
2022-07-26T23:13:29.857Z,69.22
2022-07-26T23:16:00.780Z,72.20
2022-07-26T23:18:31.160Z,81.13
2022-07-26T23:20:59.181Z,88.16
2022-07-26T23:23:29.077Z,93.46
2022-07-26T23:25:59.777Z,93.65
2022-07-26T23:28:37.430Z,81.21
2022-07-26T23:31:11.517Z,87.25
2022-07-26T23:33:50.705Z,91.91
2022-07-26T23:36:24.005Z,92.33
2022-07-26T23:38:52.262Z,88.46
2022-07-26T23:41:20.409Z,70.59
2022-07-26T23:43:49.223Z,78.53
2022-07-26T23:46:19.506Z,86.04
2022-07-26T23:48:47.852Z,83.12
2022-07-26T23:51:16.137Z,76.15
2022-07-26T23:53:44.130Z,85.77
2022-07-26T23:56:12.410Z,85.40
2022-07-26T23:58:40.686Z,73.06
